Home   Weather   Mexico   Reynosa   Past weeks
Flag for Mexico

Past Weather in Reynosa, Tamaulipas, Mexico — Yesterday and Last 2 Weeks

Currently: 97 °F. Mostly cloudy. (Weather station: Miller International Airport, Mexico). See more current weather

Past Weather in Reynosa — Graph

°F

Reynosa Temperature Yesterday

Maximum temperature yesterday: 103 °F (at 2:18 pm)
Minimum temperature yesterday: 83 °F (at 12:36 am)
Average temperature yesterday: 90 °F

High & Low Weather Summary for the Past Weeks

 TemperatureHumidityPressure
High103 °F (May 26, 2:18 pm)100% (May 19, 6:10 am)29.94 "Hg (May 19, 6:10 am)
Low72 °F (May 14, 1:53 am)28% (May 14, 6:53 pm)29.52 "Hg (May 16, 6:53 pm)
Average86 °F73%29.73 "Hg
* Reported May 12 12:53 pm — May 27 12:53 pm, Reynosa. Weather by CustomWeather, © 2024

Note: Actual official high and low records may vary slightly from our data, if they occured in-between our weather recording intervals... More about our weather records

Reynosa Weather History for the Previous 24 Hours

Scroll right to see more
 ConditionsComfort  
Time TempWeatherWind HumidityBarometerVisibility
12:53 pm
Mon, May 27
95 °FOvercast.7 mph62%29.84 "Hg4 mi
11:53 am92 °FMore clouds than sun.9 mph69%29.85 "Hg4 mi
10:53 am91 °FMore clouds than sun.10 mph70%29.85 "Hg4 mi
9:53 am88 °FMostly cloudy.9 mph78%29.84 "Hg4 mi
9:00 am86 °FMostly cloudy.8 mph85%29.83 "Hg3 mi
8:00 am85 °FFog.8 mph88%29.80 "Hg3 mi
6:53 am84 °FFog.8 mph91%29.75 "Hg5 mi
5:53 am84 °FFog.8 mph91%29.75 "Hg5 mi
5:14 am84 °FFog.8 mph91%29.75 "Hg6 mi
4:53 am84 °FFog.8 mph91%29.74 "Hg6 mi
4:23 am84 °FMostly cloudy.8 mph91%29.76 "Hg7 mi
3:53 am84 °FOvercast.10 mph91%29.74 "Hg8 mi
3:06 am85 °FMostly cloudy.8 mph88%29.76 "Hg8 mi
1:53 am85 °FOvercast.9 mph86%29.75 "Hg9 mi
1:17 am84 °FOvercast.12 mph88%29.76 "Hg10 mi
12:53 am84 °FOvercast.9 mph88%29.75 "Hg10 mi
11:53 pm
Sun, May 26
85 °FOvercast.12 mph83%29.77 "Hg10 mi
11:28 pm86 °FOvercast.9 mph80%29.77 "Hg10 mi
10:53 pm87 °FOvercast.13 mph75%29.75 "Hg10 mi
9:53 pm88 °FOvercast.17 mph73%29.72 "Hg10 mi
8:55 pm90 °FOvercast.20 mph68%29.71 "Hg10 mi
7:53 pm93 °FSunny.17 mph64%29.68 "Hg7 mi
6:53 pm97 °FSunny.16 mph56%29.65 "Hg7 mi
5:53 pm99 °FSunny.15 mph57%29.63 "Hg7 mi
4:53 pm100 °FSunny.14 mph55%29.63 "Hg6 mi
4:07 pm101 °FSunny.13 mph53%29.64 "Hg6 mi
2:53 pm102 °FSunny.18 mph50%29.65 "Hg7 mi
2:18 pm103 °FSunny.14 mph47%29.67 "Hg8 mi
Weather by CustomWeather, © 2024

See weather overview